sensor_id;sensor_type;location;lat;lon;timestamp;P1;durP1;ratioP1;P2;durP2;ratioP2
69877;SDS011;70037;51.190;6.808;2024-03-23T00:54:55;3.80;;;1.50;;
69877;SDS011;70037;51.190;6.808;2024-03-23T00:57:21;4.83;;;1.30;;
69877;SDS011;70037;51.190;6.808;2024-03-23T00:59:46;2.63;;;1.40;;
69877;SDS011;70037;51.190;6.808;2024-03-23T01:02:11;2.63;;;1.20;;
69877;SDS011;70037;51.190;6.808;2024-03-23T01:04:36;2.40;;;1.23;;
69877;SDS011;70037;51.190;6.808;2024-03-23T01:07:01;1.97;;;1.20;;
69877;SDS011;70037;51.190;6.808;2024-03-23T01:09:26;2.07;;;1.20;;
69877;SDS011;70037;51.190;6.808;2024-03-23T01:11:52;3.33;;;1.47;;
69877;SDS011;70037;51.190;6.808;2024-03-23T01:14:17;2.50;;;1.83;;
69877;SDS011;70037;51.190;6.808;2024-03-23T01:16:42;3.00;;;1.33;;
69877;SDS011;70037;51.190;6.808;2024-03-23T01:19:07;3.33;;;1.30;;
69877;SDS011;70037;51.190;6.808;2024-03-23T01:21:32;3.60;;;1.50;;
69877;SDS011;70037;51.190;6.808;2024-03-23T01:23:58;2.95;;;1.35;;
69877;SDS011;70037;51.190;6.808;2024-03-23T01:26:23;2.60;;;1.30;;
69877;SDS011;70037;51.190;6.808;2024-03-23T01:28:48;4.07;;;1.37;;
69877;SDS011;70037;51.190;6.808;2024-03-23T01:31:13;2.70;;;1.23;;
69877;SDS011;70037;51.190;6.808;2024-03-23T01:33:38;2.80;;;1.20;;
69877;SDS011;70037;51.190;6.808;2024-03-23T01:36:04;1.23;;;1.10;;
69877;SDS011;70037;51.190;6.808;2024-03-23T01:38:29;2.27;;;1.30;;
69877;SDS011;70037;51.190;6.808;2024-03-23T01:40:57;2.57;;;1.17;;
69877;SDS011;70037;51.190;6.808;2024-03-23T01:43:23;2.67;;;1.17;;
69877;SDS011;70037;51.190;6.808;2024-03-23T01:45:48;3.37;;;1.33;;
69877;SDS011;70037;51.190;6.808;2024-03-23T01:48:13;3.03;;;1.63;;
69877;SDS011;70037;51.190;6.808;2024-03-23T01:50:38;2.60;;;1.20;;
69877;SDS011;70037;51.190;6.808;2024-03-23T01:53:04;1.55;;;1.00;;
69877;SDS011;70037;51.190;6.808;2024-03-23T01:55:30;1.88;;;1.20;;
69877;SDS011;70037;51.190;6.808;2024-03-23T01:57:56;2.42;;;1.00;;
69877;SDS011;70037;51.190;6.808;2024-03-23T02:00:21;2.58;;;1.30;;
69877;SDS011;70037;51.190;6.808;2024-03-23T02:02:48;2.00;;;1.30;;
69877;SDS011;70037;51.190;6.808;2024-03-23T02:05:13;2.77;;;1.33;;
69877;SDS011;70037;51.190;6.808;2024-03-23T02:07:39;3.00;;;1.20;;
69877;SDS011;70037;51.190;6.808;2024-03-23T02:10:05;2.90;;;1.45;;
69877;SDS011;70037;51.190;6.808;2024-03-23T02:12:30;3.40;;;1.70;;
69877;SDS011;70037;51.190;6.808;2024-03-23T02:14:56;2.45;;;1.13;;
69877;SDS011;70037;51.190;6.808;2024-03-23T02:17:21;3.73;;;1.13;;
69877;SDS011;70037;51.190;6.808;2024-03-23T02:19:46;3.17;;;1.47;;
69877;SDS011;70037;51.190;6.808;2024-03-23T02:22:11;2.77;;;1.00;;
69877;SDS011;70037;51.190;6.808;2024-03-23T02:24:37;2.77;;;1.70;;
69877;SDS011;70037;51.190;6.808;2024-03-23T02:27:02;1.88;;;1.20;;
69877;SDS011;70037;51.190;6.808;2024-03-23T02:29:28;3.58;;;1.45;;
69877;SDS011;70037;51.190;6.808;2024-03-23T02:31:53;1.93;;;0.93;;
69877;SDS011;70037;51.190;6.808;2024-03-23T02:34:18;2.17;;;1.23;;
69877;SDS011;70037;51.190;6.808;2024-03-23T02:36:43;2.73;;;1.13;;
69877;SDS011;70037;51.190;6.808;2024-03-23T02:39:08;1.33;;;1.17;;
69877;SDS011;70037;51.190;6.808;2024-03-23T02:41:34;1.43;;;1.10;;
69877;SDS011;70037;51.190;6.808;2024-03-23T02:43:59;3.07;;;1.57;;
69877;SDS011;70037;51.190;6.808;2024-03-23T02:46:24;2.87;;;1.40;;
69877;SDS011;70037;51.190;6.808;2024-03-23T02:48:49;2.50;;;1.13;;
69877;SDS011;70037;51.190;6.808;2024-03-23T02:51:14;1.83;;;1.00;;
69877;SDS011;70037;51.190;6.808;2024-03-23T02:53:39;2.90;;;1.20;;
69877;SDS011;70037;51.190;6.808;2024-03-23T02:56:05;3.23;;;1.50;;
69877;SDS011;70037;51.190;6.808;2024-03-23T02:58:30;1.53;;;1.00;;
69877;SDS011;70037;51.190;6.808;2024-03-23T03:00:55;1.27;;;1.03;;
69877;SDS011;70037;51.190;6.808;2024-03-23T03:03:20;2.08;;;1.00;;
69877;SDS011;70037;51.190;6.808;2024-03-23T03:05:45;1.83;;;1.08;;
69877;SDS011;70037;51.190;6.808;2024-03-23T03:08:11;2.27;;;1.20;;
69877;SDS011;70037;51.190;6.808;2024-03-23T03:10:36;2.40;;;1.40;;
69877;SDS011;70037;51.190;6.808;2024-03-23T03:13:01;1.57;;;0.93;;
69877;SDS011;70037;51.190;6.808;2024-03-23T03:15:27;1.85;;;1.23;;
69877;SDS011;70037;51.190;6.808;2024-03-23T03:17:52;1.90;;;1.10;;
69877;SDS011;70037;51.190;6.808;2024-03-23T03:20:17;1.97;;;1.30;;
69877;SDS011;70037;51.190;6.808;2024-03-23T03:22:43;3.00;;;1.20;;
69877;SDS011;70037;51.190;6.808;2024-03-23T03:25:08;1.83;;;1.10;;
69877;SDS011;70037;51.190;6.808;2024-03-23T03:27:33;2.50;;;0.90;;
69877;SDS011;70037;51.190;6.808;2024-03-23T03:29:59;2.38;;;1.10;;
69877;SDS011;70037;51.190;6.808;2024-03-23T03:32:27;2.10;;;1.10;;
69877;SDS011;70037;51.190;6.808;2024-03-23T03:34:52;2.37;;;1.30;;
69877;SDS011;70037;51.190;6.808;2024-03-23T03:37:17;2.53;;;1.10;;
69877;SDS011;70037;51.190;6.808;2024-03-23T03:39:42;2.25;;;1.13;;
69877;SDS011;70037;51.190;6.808;2024-03-23T03:42:07;3.47;;;1.00;;
69877;SDS011;70037;51.190;6.808;2024-03-23T03:44:33;2.07;;;0.93;;
69877;SDS011;70037;51.190;6.808;2024-03-23T03:46:58;3.03;;;1.37;;
69877;SDS011;70037;51.190;6.808;2024-03-23T03:49:23;2.33;;;1.13;;
69877;SDS011;70037;51.190;6.808;2024-03-23T03:51:48;1.87;;;0.93;;
69877;SDS011;70037;51.190;6.808;2024-03-23T03:54:13;2.10;;;1.00;;
69877;SDS011;70037;51.190;6.808;2024-03-23T03:56:38;3.20;;;1.10;;
69877;SDS011;70037;51.190;6.808;2024-03-23T03:59:04;1.63;;;1.20;;
69877;SDS011;70037;51.190;6.808;2024-03-23T04:01:29;1.92;;;1.08;;
69877;SDS011;70037;51.190;6.808;2024-03-23T04:03:55;1.80;;;0.90;;
69877;SDS011;70037;51.190;6.808;2024-03-23T04:06:20;2.13;;;0.97;;
69877;SDS011;70037;51.190;6.808;2024-03-23T04:08:45;2.22;;;1.08;;
69877;SDS011;70037;51.190;6.808;2024-03-23T04:11:11;1.20;;;0.83;;
69877;SDS011;70037;51.190;6.808;2024-03-23T04:13:36;2.87;;;1.10;;
69877;SDS011;70037;51.190;6.808;2024-03-23T04:16:01;1.93;;;1.10;;
69877;SDS011;70037;51.190;6.808;2024-03-23T04:18:26;1.60;;;0.70;;
69877;SDS011;70037;51.190;6.808;2024-03-23T04:20:51;1.47;;;1.00;;
69877;SDS011;70037;51.190;6.808;2024-03-23T04:23:17;2.10;;;1.13;;
69877;SDS011;70037;51.190;6.808;2024-03-23T04:25:42;2.27;;;1.10;;
69877;SDS011;70037;51.190;6.808;2024-03-23T04:28:07;2.03;;;1.20;;
69877;SDS011;70037;51.190;6.808;2024-03-23T04:30:32;2.00;;;0.90;;
69877;SDS011;70037;51.190;6.808;2024-03-23T04:32:57;1.47;;;1.00;;
69877;SDS011;70037;51.190;6.808;2024-03-23T04:35:23;1.30;;;0.90;;
69877;SDS011;70037;51.190;6.808;2024-03-23T04:37:50;2.97;;;1.00;;
69877;SDS011;70037;51.190;6.808;2024-03-23T04:40:17;2.15;;;0.80;;
69877;SDS011;70037;51.190;6.808;2024-03-23T04:42:42;1.60;;;0.80;;
69877;SDS011;70037;51.190;6.808;2024-03-23T04:45:07;2.67;;;1.10;;
69877;SDS011;70037;51.190;6.808;2024-03-23T04:47:33;2.23;;;0.90;;
69877;SDS011;70037;51.190;6.808;2024-03-23T04:50:00;1.85;;;0.80;;
69877;SDS011;70037;51.190;6.808;2024-03-23T04:52:26;1.67;;;1.00;;
69877;SDS011;70037;51.190;6.808;2024-03-23T04:54:51;1.85;;;0.90;;
69877;SDS011;70037;51.190;6.808;2024-03-23T04:57:17;3.33;;;1.20;;
69877;SDS011;70037;51.190;6.808;2024-03-23T04:59:42;3.43;;;1.17;;
69877;SDS011;70037;51.190;6.808;2024-03-23T05:02:07;1.63;;;0.80;;
69877;SDS011;70037;51.190;6.808;2024-03-23T05:04:32;3.17;;;1.10;;
69877;SDS011;70037;51.190;6.808;2024-03-23T05:06:58;1.40;;;1.20;;
69877;SDS011;70037;51.190;6.808;2024-03-23T05:09:23;2.47;;;1.20;;
69877;SDS011;70037;51.190;6.808;2024-03-23T05:11:48;3.17;;;1.50;;
69877;SDS011;70037;51.190;6.808;2024-03-23T05:14:14;1.90;;;1.00;;
69877;SDS011;70037;51.190;6.808;2024-03-23T05:16:39;2.50;;;1.20;;
69877;SDS011;70037;51.190;6.808;2024-03-23T05:19:04;0.80;;;0.77;;
69877;SDS011;70037;51.190;6.808;2024-03-23T05:21:29;1.17;;;0.90;;
69877;SDS011;70037;51.190;6.808;2024-03-23T05:23:54;2.87;;;0.87;;
69877;SDS011;70037;51.190;6.808;2024-03-23T05:26:21;2.42;;;1.00;;
69877;SDS011;70037;51.190;6.808;2024-03-23T05:28:46;2.10;;;1.08;;
69877;SDS011;70037;51.190;6.808;2024-03-23T05:31:11;1.17;;;0.90;;
69877;SDS011;70037;51.190;6.808;2024-03-23T05:33:36;2.03;;;0.90;;
69877;SDS011;70037;51.190;6.808;2024-03-23T05:36:04;3.75;;;1.10;;
69877;SDS011;70037;51.190;6.808;2024-03-23T05:38:30;1.37;;;0.70;;
69877;SDS011;70037;51.190;6.808;2024-03-23T05:40:55;0.88;;;0.73;;
69877;SDS011;70037;51.190;6.808;2024-03-23T05:43:21;1.25;;;0.77;;
69877;SDS011;70037;51.190;6.808;2024-03-23T05:45:52;1.52;;;0.73;;
69877;SDS011;70037;51.190;6.808;2024-03-23T05:48:18;1.63;;;0.70;;
69877;SDS011;70037;51.190;6.808;2024-03-23T05:50:43;2.80;;;1.20;;
69877;SDS011;70037;51.190;6.808;2024-03-23T05:53:08;3.10;;;1.10;;
69877;SDS011;70037;51.190;6.808;2024-03-23T05:55:33;2.10;;;0.87;;
69877;SDS011;70037;51.190;6.808;2024-03-23T05:57:58;2.03;;;0.97;;
69877;SDS011;70037;51.190;6.808;2024-03-23T06:00:25;0.80;;;0.73;;
69877;SDS011;70037;51.190;6.808;2024-03-23T06:02:51;2.30;;;0.70;;
69877;SDS011;70037;51.190;6.808;2024-03-23T06:05:16;1.63;;;0.83;;
69877;SDS011;70037;51.190;6.808;2024-03-23T06:07:41;2.10;;;0.80;;
69877;SDS011;70037;51.190;6.808;2024-03-23T06:10:07;0.80;;;0.70;;
69877;SDS011;70037;51.190;6.808;2024-03-23T06:12:32;1.38;;;0.63;;
69877;SDS011;70037;51.190;6.808;2024-03-23T06:14:57;3.70;;;1.00;;
69877;SDS011;70037;51.190;6.808;2024-03-23T06:17:22;3.40;;;0.83;;
69877;SDS011;70037;51.190;6.808;2024-03-23T06:19:48;2.53;;;1.00;;
69877;SDS011;70037;51.190;6.808;2024-03-23T06:22:14;1.00;;;0.80;;
69877;SDS011;70037;51.190;6.808;2024-03-23T06:24:39;2.47;;;0.73;;
69877;SDS011;70037;51.190;6.808;2024-03-23T06:27:04;2.17;;;0.97;;
69877;SDS011;70037;51.190;6.808;2024-03-23T06:29:29;1.67;;;0.80;;
69877;SDS011;70037;51.190;6.808;2024-03-23T06:31:55;1.70;;;1.00;;
69877;SDS011;70037;51.190;6.808;2024-03-23T06:34:20;1.27;;;0.97;;
69877;SDS011;70037;51.190;6.808;2024-03-23T06:36:46;3.22;;;0.80;;
69877;SDS011;70037;51.190;6.808;2024-03-23T06:39:12;3.30;;;0.60;;
69877;SDS011;70037;51.190;6.808;2024-03-23T06:41:40;1.20;;;0.77;;
69877;SDS011;70037;51.190;6.808;2024-03-23T06:44:05;1.90;;;0.80;;
69877;SDS011;70037;51.190;6.808;2024-03-23T06:46:30;1.33;;;0.60;;
69877;SDS011;70037;51.190;6.808;2024-03-23T06:48:56;1.13;;;0.60;;
69877;SDS011;70037;51.190;6.808;2024-03-23T06:51:21;1.60;;;1.10;;
69877;SDS011;70037;51.190;6.808;2024-03-23T06:53:46;2.95;;;0.70;;
69877;SDS011;70037;51.190;6.808;2024-03-23T06:56:11;1.30;;;0.63;;
69877;SDS011;70037;51.190;6.808;2024-03-23T06:58:37;2.90;;;0.90;;
69877;SDS011;70037;51.190;6.808;2024-03-23T07:01:02;2.13;;;0.77;;
69877;SDS011;70037;51.190;6.808;2024-03-23T07:03:27;2.33;;;1.13;;
69877;SDS011;70037;51.190;6.808;2024-03-23T07:05:52;1.47;;;0.70;;
69877;SDS011;70037;51.190;6.808;2024-03-23T07:08:17;5.33;;;0.80;;
69877;SDS011;70037;51.190;6.808;2024-03-23T07:10:46;6.90;;;0.80;;
69877;SDS011;70037;51.190;6.808;2024-03-23T07:13:12;4.37;;;0.70;;
69877;SDS011;70037;51.190;6.808;2024-03-23T07:15:37;2.40;;;0.93;;
69877;SDS011;70037;51.190;6.808;2024-03-23T07:18:02;2.40;;;0.83;;
69877;SDS011;70037;51.190;6.808;2024-03-23T07:20:27;3.50;;;1.10;;
69877;SDS011;70037;51.190;6.808;2024-03-23T07:22:55;2.53;;;0.70;;
69877;SDS011;70037;51.190;6.808;2024-03-23T07:25:20;5.90;;;0.90;;
69877;SDS011;70037;51.190;6.808;2024-03-23T07:30:12;5.88;;;1.55;;
69877;SDS011;70037;51.190;6.808;2024-03-23T07:32:38;2.47;;;1.27;;
69877;SDS011;70037;51.190;6.808;2024-03-23T07:35:03;9.27;;;1.73;;
69877;SDS011;70037;51.190;6.808;2024-03-23T07:37:29;8.38;;;1.63;;
69877;SDS011;70037;51.190;6.808;2024-03-23T07:39:54;3.07;;;1.20;;
69877;SDS011;70037;51.190;6.808;2024-03-23T07:42:19;5.10;;;1.90;;
69877;SDS011;70037;51.190;6.808;2024-03-23T07:44:44;5.60;;;1.37;;
69877;SDS011;70037;51.190;6.808;2024-03-23T07:47:11;4.82;;;1.40;;
69877;SDS011;70037;51.190;6.808;2024-03-23T07:49:37;4.30;;;1.60;;
69877;SDS011;70037;51.190;6.808;2024-03-23T07:52:02;4.40;;;1.23;;
69877;SDS011;70037;51.190;6.808;2024-03-23T07:54:27;4.73;;;1.37;;
69877;SDS011;70037;51.190;6.808;2024-03-23T07:56:53;8.40;;;1.40;;
69877;SDS011;70037;51.190;6.808;2024-03-23T07:59:19;5.15;;;1.83;;
69877;SDS011;70037;51.190;6.808;2024-03-23T08:01:44;2.65;;;1.50;;
69877;SDS011;70037;51.190;6.808;2024-03-23T08:04:09;3.50;;;1.30;;
69877;SDS011;70037;51.190;6.808;2024-03-23T08:06:35;3.83;;;1.33;;
69877;SDS011;70037;51.190;6.808;2024-03-23T08:09:00;1.97;;;1.20;;
69877;SDS011;70037;51.190;6.808;2024-03-23T08:11:29;5.83;;;1.93;;
69877;SDS011;70037;51.190;6.808;2024-03-23T08:13:54;7.78;;;1.85;;
69877;SDS011;70037;51.190;6.808;2024-03-23T08:16:20;2.80;;;1.33;;
69877;SDS011;70037;51.190;6.808;2024-03-23T08:18:45;2.60;;;1.27;;
69877;SDS011;70037;51.190;6.808;2024-03-23T08:21:10;4.70;;;1.40;;
69877;SDS011;70037;51.190;6.808;2024-03-23T08:23:36;3.47;;;1.50;;
69877;SDS011;70037;51.190;6.808;2024-03-23T08:26:03;2.65;;;1.08;;
69877;SDS011;70037;51.190;6.808;2024-03-23T08:28:29;2.08;;;1.00;;
69877;SDS011;70037;51.190;6.808;2024-03-23T08:30:54;3.60;;;1.85;;
69877;SDS011;70037;51.190;6.808;2024-03-23T08:33:20;3.37;;;1.27;;
69877;SDS011;70037;51.190;6.808;2024-03-23T08:35:54;3.17;;;1.55;;
69877;SDS011;70037;51.190;6.808;2024-03-23T08:38:20;3.90;;;1.20;;
69877;SDS011;70037;51.190;6.808;2024-03-23T08:40:45;3.33;;;1.17;;
69877;SDS011;70037;51.190;6.808;2024-03-23T08:43:11;4.55;;;1.38;;
69877;SDS011;70037;51.190;6.808;2024-03-23T08:45:36;5.63;;;1.37;;
69877;SDS011;70037;51.190;6.808;2024-03-23T08:48:01;7.20;;;1.65;;
69877;SDS011;70037;51.190;6.808;2024-03-23T08:50:26;4.33;;;0.87;;
69877;SDS011;70037;51.190;6.808;2024-03-23T08:52:51;2.78;;;1.35;;
69877;SDS011;70037;51.190;6.808;2024-03-23T08:55:16;3.90;;;1.10;;
69877;SDS011;70037;51.190;6.808;2024-03-23T08:57:42;5.75;;;1.38;;
69877;SDS011;70037;51.190;6.808;2024-03-23T09:00:07;4.57;;;1.10;;
69877;SDS011;70037;51.190;6.808;2024-03-23T09:02:33;3.97;;;1.25;;
69877;SDS011;70037;51.190;6.808;2024-03-23T09:04:59;6.50;;;2.10;;
69877;SDS011;70037;51.190;6.808;2024-03-23T09:07:29;5.80;;;1.45;;
69877;SDS011;70037;51.190;6.808;2024-03-23T09:09:54;3.90;;;1.37;;
69877;SDS011;70037;51.190;6.808;2024-03-23T09:12:19;3.93;;;1.20;;
69877;SDS011;70037;51.190;6.808;2024-03-23T09:14:44;4.20;;;1.20;;
69877;SDS011;70037;51.190;6.808;2024-03-23T09:17:09;3.90;;;1.50;;
69877;SDS011;70037;51.190;6.808;2024-03-23T09:19:35;3.70;;;1.15;;
69877;SDS011;70037;51.190;6.808;2024-03-23T09:22:00;3.87;;;1.10;;
69877;SDS011;70037;51.190;6.808;2024-03-23T09:24:26;4.00;;;1.10;;
69877;SDS011;70037;51.190;6.808;2024-03-23T09:26:51;6.13;;;1.30;;
69877;SDS011;70037;51.190;6.808;2024-03-23T09:29:17;5.20;;;1.25;;
69877;SDS011;70037;51.190;6.808;2024-03-23T09:31:42;3.40;;;1.00;;
69877;SDS011;70037;51.190;6.808;2024-03-23T09:34:07;4.83;;;1.13;;
69877;SDS011;70037;51.190;6.808;2024-03-23T09:36:32;4.30;;;0.93;;
69877;SDS011;70037;51.190;6.808;2024-03-23T09:38:57;2.63;;;1.02;;
69877;SDS011;70037;51.190;6.808;2024-03-23T09:41:23;3.70;;;1.23;;
69877;SDS011;70037;51.190;6.808;2024-03-23T09:43:48;3.13;;;0.93;;
69877;SDS011;70037;51.190;6.808;2024-03-23T09:46:14;4.70;;;1.48;;
69877;SDS011;70037;51.190;6.808;2024-03-23T09:48:39;4.07;;;1.10;;
69877;SDS011;70037;51.190;6.808;2024-03-23T09:51:05;4.35;;;1.00;;
69877;SDS011;70037;51.190;6.808;2024-03-23T09:53:33;3.15;;;0.90;;
69877;SDS011;70037;51.190;6.808;2024-03-23T09:55:58;2.30;;;0.90;;
69877;SDS011;70037;51.190;6.808;2024-03-23T09:58:23;2.83;;;0.80;;
69877;SDS011;70037;51.190;6.808;2024-03-23T10:00:48;6.37;;;1.33;;
69877;SDS011;70037;51.190;6.808;2024-03-23T10:03:13;7.13;;;1.20;;
69877;SDS011;70037;51.190;6.808;2024-03-23T10:05:39;3.88;;;1.10;;
69877;SDS011;70037;51.190;6.808;2024-03-23T10:08:37;5.03;;;0.80;;
69877;SDS011;70037;51.190;6.808;2024-03-23T10:10:58;5.07;;;0.70;;
69877;SDS011;70037;51.190;6.808;2024-03-23T10:13:33;5.18;;;1.13;;
69877;SDS011;70037;51.190;6.808;2024-03-23T10:15:59;1.83;;;1.10;;
69877;SDS011;70037;51.190;6.808;2024-03-23T10:18:24;4.32;;;1.10;;
69877;SDS011;70037;51.190;6.808;2024-03-23T10:23:30;8.45;;;1.17;;
69877;SDS011;70037;51.190;6.808;2024-03-23T10:25:55;5.83;;;1.30;;
69877;SDS011;70037;51.190;6.808;2024-03-23T10:28:36;3.80;;;1.13;;
69877;SDS011;70037;51.190;6.808;2024-03-23T10:31:06;3.60;;;0.70;;
69877;SDS011;70037;51.190;6.808;2024-03-23T10:33:36;5.93;;;1.20;;
69877;SDS011;70037;51.190;6.808;2024-03-23T10:36:01;3.37;;;1.23;;
69877;SDS011;70037;51.190;6.808;2024-03-23T10:38:26;6.80;;;1.20;;
69877;SDS011;70037;51.190;6.808;2024-03-23T10:40:51;4.63;;;1.00;;
69877;SDS011;70037;51.190;6.808;2024-03-23T10:43:17;6.80;;;0.90;;
69877;SDS011;70037;51.190;6.808;2024-03-23T10:45:42;4.83;;;1.23;;
69877;SDS011;70037;51.190;6.808;2024-03-23T10:48:08;7.03;;;1.23;;
69877;SDS011;70037;51.190;6.808;2024-03-23T10:50:33;3.80;;;1.27;;
69877;SDS011;70037;51.190;6.808;2024-03-23T10:52:58;4.53;;;1.03;;
69877;SDS011;70037;51.190;6.808;2024-03-23T10:55:24;4.78;;;1.10;;
69877;SDS011;70037;51.190;6.808;2024-03-23T10:57:55;12.23;;;1.27;;
69877;SDS011;70037;51.190;6.808;2024-03-23T11:00:21;3.33;;;1.05;;
69877;SDS011;70037;51.190;6.808;2024-03-23T11:02:48;3.13;;;1.20;;
69877;SDS011;70037;51.190;6.808;2024-03-23T11:07:51;23.52;;;2.28;;
69877;SDS011;70037;51.190;6.808;2024-03-23T11:10:26;48.70;;;4.05;;
69877;SDS011;70037;51.190;6.808;2024-03-23T11:12:52;83.63;;;5.50;;
69877;SDS011;70037;51.190;6.808;2024-03-23T11:15:17;55.63;;;5.43;;
69877;SDS011;70037;51.190;6.808;2024-03-23T11:17:43;50.07;;;5.00;;
69877;SDS011;70037;51.190;6.808;2024-03-23T11:20:31;58.10;;;6.18;;
69877;SDS011;70037;51.190;6.808;2024-03-23T11:22:56;60.30;;;5.07;;
69877;SDS011;70037;51.190;6.808;2024-03-23T11:27:47;39.83;;;3.33;;
69877;SDS011;70037;51.190;6.808;2024-03-23T11:30:13;41.85;;;4.28;;
69877;SDS011;70037;51.190;6.808;2024-03-23T11:32:39;41.45;;;3.60;;
69877;SDS011;70037;51.190;6.808;2024-03-23T11:35:04;33.20;;;3.57;;
69877;SDS011;70037;51.190;6.808;2024-03-23T11:37:29;40.67;;;3.70;;
69877;SDS011;70037;51.190;6.808;2024-03-23T11:39:55;38.17;;;4.17;;
69877;SDS011;70037;51.190;6.808;2024-03-23T11:42:20;21.65;;;2.42;;
69877;SDS011;70037;51.190;6.808;2024-03-23T11:44:46;35.50;;;6.72;;
69877;SDS011;70037;51.190;6.808;2024-03-23T11:47:12;44.33;;;4.47;;
69877;SDS011;70037;51.190;6.808;2024-03-23T11:49:37;41.10;;;4.77;;
69877;SDS011;70037;51.190;6.808;2024-03-23T11:52:05;24.45;;;3.25;;
69877;SDS011;70037;51.190;6.808;2024-03-23T11:54:31;25.95;;;4.38;;
69877;SDS011;70037;51.190;6.808;2024-03-23T11:56:57;23.63;;;2.50;;
69877;SDS011;70037;51.190;6.808;2024-03-23T12:01:57;20.15;;;2.78;;
69877;SDS011;70037;51.190;6.808;2024-03-23T12:04:28;23.67;;;2.70;;
69877;SDS011;70037;51.190;6.808;2024-03-23T12:09:37;24.65;;;3.80;;
69877;SDS011;70037;51.190;6.808;2024-03-23T12:12:10;18.33;;;3.07;;
69877;SDS011;70037;51.190;6.808;2024-03-23T12:14:35;21.15;;;2.10;;
69877;SDS011;70037;51.190;6.808;2024-03-23T12:17:07;20.10;;;2.13;;
69877;SDS011;70037;51.190;6.808;2024-03-23T12:19:33;21.42;;;2.03;;
69877;SDS011;70037;51.190;6.808;2024-03-23T12:21:58;17.67;;;4.10;;
69877;SDS011;70037;51.190;6.808;2024-03-23T12:24:23;16.35;;;2.78;;
69877;SDS011;70037;51.190;6.808;2024-03-23T12:26:48;24.23;;;2.43;;
69877;SDS011;70037;51.190;6.808;2024-03-23T12:29:15;10.57;;;2.42;;
69877;SDS011;70037;51.190;6.808;2024-03-23T12:31:40;19.30;;;2.53;;
69877;SDS011;70037;51.190;6.808;2024-03-23T12:34:05;18.40;;;2.87;;
69877;SDS011;70037;51.190;6.808;2024-03-23T12:36:31;14.53;;;1.80;;
69877;SDS011;70037;51.190;6.808;2024-03-23T12:38:56;15.43;;;1.73;;
69877;SDS011;70037;51.190;6.808;2024-03-23T12:41:21;20.77;;;2.03;;
69877;SDS011;70037;51.190;6.808;2024-03-23T12:43:46;17.50;;;2.40;;
69877;SDS011;70037;51.190;6.808;2024-03-23T12:46:11;16.60;;;1.80;;
69877;SDS011;70037;51.190;6.808;2024-03-23T12:48:37;10.43;;;2.13;;
69877;SDS011;70037;51.190;6.808;2024-03-23T12:51:02;16.87;;;2.00;;
69877;SDS011;70037;51.190;6.808;2024-03-23T12:53:27;16.30;;;2.20;;
69877;SDS011;70037;51.190;6.808;2024-03-23T12:55:52;14.33;;;1.87;;
69877;SDS011;70037;51.190;6.808;2024-03-23T12:58:18;12.00;;;1.33;;
69877;SDS011;70037;51.190;6.808;2024-03-23T13:00:43;7.73;;;1.60;;
69877;SDS011;70037;51.190;6.808;2024-03-23T13:03:09;15.33;;;2.43;;
69877;SDS011;70037;51.190;6.808;2024-03-23T13:05:38;11.68;;;2.03;;
69877;SDS011;70037;51.190;6.808;2024-03-23T13:08:03;13.33;;;2.17;;
69877;SDS011;70037;51.190;6.808;2024-03-23T13:10:28;8.77;;;1.93;;
69877;SDS011;70037;51.190;6.808;2024-03-23T13:12:54;11.73;;;2.47;;
69877;SDS011;70037;51.190;6.808;2024-03-23T13:15:19;8.53;;;1.70;;
69877;SDS011;70037;51.190;6.808;2024-03-23T13:17:45;8.05;;;1.55;;
69877;SDS011;70037;51.190;6.808;2024-03-23T13:20:10;9.83;;;1.50;;
69877;SDS011;70037;51.190;6.808;2024-03-23T13:22:39;7.10;;;1.33;;
69877;SDS011;70037;51.190;6.808;2024-03-23T13:25:04;8.90;;;2.03;;
69877;SDS011;70037;51.190;6.808;2024-03-23T13:27:29;10.37;;;1.43;;
69877;SDS011;70037;51.190;6.808;2024-03-23T13:29:54;5.90;;;1.03;;
69877;SDS011;70037;51.190;6.808;2024-03-23T13:32:20;4.63;;;1.20;;
69877;SDS011;70037;51.190;6.808;2024-03-23T13:34:45;4.63;;;1.00;;
69877;SDS011;70037;51.190;6.808;2024-03-23T13:37:10;5.00;;;1.00;;
69877;SDS011;70037;51.190;6.808;2024-03-23T13:39:35;8.57;;;1.03;;
69877;SDS011;70037;51.190;6.808;2024-03-23T13:42:01;4.93;;;1.10;;
69877;SDS011;70037;51.190;6.808;2024-03-23T13:44:26;7.70;;;1.10;;
69877;SDS011;70037;51.190;6.808;2024-03-23T13:46:51;6.30;;;1.20;;
69877;SDS011;70037;51.190;6.808;2024-03-23T13:49:26;8.13;;;1.00;;
69877;SDS011;70037;51.190;6.808;2024-03-23T13:51:52;7.30;;;0.93;;
69877;SDS011;70037;51.190;6.808;2024-03-23T13:54:17;8.20;;;1.25;;
69877;SDS011;70037;51.190;6.808;2024-03-23T13:56:42;5.67;;;1.47;;
69877;SDS011;70037;51.190;6.808;2024-03-23T13:59:08;7.53;;;1.23;;
69877;SDS011;70037;51.190;6.808;2024-03-23T14:01:33;8.17;;;1.30;;
69877;SDS011;70037;51.190;6.808;2024-03-23T14:03:58;6.27;;;1.10;;
69877;SDS011;70037;51.190;6.808;2024-03-23T14:06:23;5.15;;;2.35;;
69877;SDS011;70037;51.190;6.808;2024-03-23T14:08:49;2.80;;;0.90;;
69877;SDS011;70037;51.190;6.808;2024-03-23T14:11:14;7.72;;;1.10;;
69877;SDS011;70037;51.190;6.808;2024-03-23T14:13:39;9.23;;;2.17;;
69877;SDS011;70037;51.190;6.808;2024-03-23T14:16:05;7.43;;;1.00;;
69877;SDS011;70037;51.190;6.808;2024-03-23T14:18:30;4.97;;;0.73;;
69877;SDS011;70037;51.190;6.808;2024-03-23T14:20:56;6.53;;;1.30;;
69877;SDS011;70037;51.190;6.808;2024-03-23T14:23:23;5.15;;;1.23;;
69877;SDS011;70037;51.190;6.808;2024-03-23T14:25:48;3.70;;;0.90;;
69877;SDS011;70037;51.190;6.808;2024-03-23T14:28:14;4.70;;;1.10;;
69877;SDS011;70037;51.190;6.808;2024-03-23T14:30:40;6.15;;;1.52;;
69877;SDS011;70037;51.190;6.808;2024-03-23T14:33:05;2.90;;;0.77;;
69877;SDS011;70037;51.190;6.808;2024-03-23T14:35:30;7.03;;;1.53;;
69877;SDS011;70037;51.190;6.808;2024-03-23T14:40:23;6.97;;;2.05;;
69877;SDS011;70037;51.190;6.808;2024-03-23T14:42:48;5.87;;;0.90;;
69877;SDS011;70037;51.190;6.808;2024-03-23T14:45:13;3.20;;;0.70;;
69877;SDS011;70037;51.190;6.808;2024-03-23T14:47:40;3.85;;;1.38;;
69877;SDS011;70037;51.190;6.808;2024-03-23T14:50:07;5.13;;;1.67;;
69877;SDS011;70037;51.190;6.808;2024-03-23T14:52:33;5.85;;;0.88;;
69877;SDS011;70037;51.190;6.808;2024-03-23T14:54:58;3.87;;;1.00;;
69877;SDS011;70037;51.190;6.808;2024-03-23T14:57:23;4.27;;;1.50;;
69877;SDS011;70037;51.190;6.808;2024-03-23T14:59:49;3.10;;;0.70;;
69877;SDS011;70037;51.190;6.808;2024-03-23T15:02:14;2.60;;;0.63;;
69877;SDS011;70037;51.190;6.808;2024-03-23T15:04:39;4.13;;;1.10;;
69877;SDS011;70037;51.190;6.808;2024-03-23T15:07:06;8.00;;;1.10;;
69877;SDS011;70037;51.190;6.808;2024-03-23T15:09:32;4.60;;;0.60;;
69877;SDS011;70037;51.190;6.808;2024-03-23T15:11:57;4.78;;;1.17;;
69877;SDS011;70037;51.190;6.808;2024-03-23T15:14:23;6.37;;;0.97;;
69877;SDS011;70037;51.190;6.808;2024-03-23T15:16:48;6.78;;;1.27;;
69877;SDS011;70037;51.190;6.808;2024-03-23T15:19:14;5.13;;;1.02;;
69877;SDS011;70037;51.190;6.808;2024-03-23T15:21:40;6.55;;;1.05;;
69877;SDS011;70037;51.190;6.808;2024-03-23T15:24:05;4.17;;;0.77;;
69877;SDS011;70037;51.190;6.808;2024-03-23T15:26:30;4.10;;;0.63;;
69877;SDS011;70037;51.190;6.808;2024-03-23T15:28:55;4.27;;;0.90;;
69877;SDS011;70037;51.190;6.808;2024-03-23T15:31:24;4.30;;;1.05;;
69877;SDS011;70037;51.190;6.808;2024-03-23T15:33:49;4.22;;;1.17;;
69877;SDS011;70037;51.190;6.808;2024-03-23T15:36:15;5.83;;;1.30;;
69877;SDS011;70037;51.190;6.808;2024-03-23T15:38:40;3.95;;;0.93;;
69877;SDS011;70037;51.190;6.808;2024-03-23T15:41:05;5.10;;;0.90;;
69877;SDS011;70037;51.190;6.808;2024-03-23T15:43:30;7.87;;;1.30;;
69877;SDS011;70037;51.190;6.808;2024-03-23T15:48:27;3.88;;;0.70;;
69877;SDS011;70037;51.190;6.808;2024-03-23T15:50:52;2.60;;;0.65;;